TimeEDT,TemperatureF,Dew PointF,Humidity,Sea Level PressureIn,VisibilityMPH,Wind Direction,Wind SpeedMPH,Gust SpeedMPH,PrecipitationIn,Events,Conditions,WindDirDegrees,DateUTC
12:53 AM,66.0,62.1,87,30.21,10.0,SW,3.5,-,N/A,,Partly Cloudy,220,2012-10-04 04:53:00
1:22 AM,66.2,62.6,88,30.23,10.0,SW,3.5,-,N/A,,Mostly Cloudy,220,2012-10-04 05:22:00
1:53 AM,66.0,62.1,87,30.20,10.0,WSW,4.6,-,N/A,,Mostly Cloudy,250,2012-10-04 05:53:00
2:00 AM,64.4,62.6,94,30.23,10.0,WSW,3.5,-,N/A,,Scattered Clouds,240,2012-10-04 06:00:00
2:53 AM,64.9,62.1,90,30.20,10.0,Calm,Calm,-,N/A,,Clear,0,2012-10-04 06:53:00
3:53 AM,64.9,62.1,90,30.20,10.0,Calm,Calm,-,N/A,,Clear,0,2012-10-04 07:53:00
4:53 AM,64.0,62.1,93,30.20,8.0,Calm,Calm,-,N/A,,Clear,0,2012-10-04 08:53:00
5:53 AM,64.0,62.1,93,30.22,7.0,Calm,Calm,-,N/A,,Clear,0,2012-10-04 09:53:00
6:53 AM,64.0,62.1,93,30.23,7.0,Calm,Calm,-,N/A,,Clear,0,2012-10-04 10:53:00
7:53 AM,64.0,61.0,90,30.24,4.0,Calm,Calm,-,N/A,,Clear,0,2012-10-04 11:53:00
8:53 AM,64.0,62.1,93,30.25,5.0,West,3.5,-,N/A,,Clear,280,2012-10-04 12:53:00
9:32 AM,66.2,62.6,88,30.28,5.0,NNW,3.5,-,N/A,,Scattered Clouds,340,2012-10-04 13:32:00
9:53 AM,66.0,62.1,87,30.27,9.0,Calm,Calm,-,N/A,,Partly Cloudy,0,2012-10-04 13:53:00
10:53 AM,72.0,61.0,68,30.26,10.0,Calm,Calm,-,N/A,,Clear,0,2012-10-04 14:53:00
11:53 AM,73.9,59.0,59,30.26,10.0,Calm,Calm,-,N/A,,Clear,0,2012-10-04 15:53:00
12:53 PM,77.0,57.0,50,30.24,10.0,Calm,Calm,-,N/A,,Clear,0,2012-10-04 16:53:00
1:53 PM,79.0,57.0,47,30.22,10.0,Calm,Calm,-,N/A,,Clear,0,2012-10-04 17:53:00
2:53 PM,80.1,55.9,43,30.20,10.0,Variable,4.6,-,N/A,,Clear,0,2012-10-04 18:53:00
3:53 PM,80.1,55.0,42,30.19,10.0,Variable,5.8,-,N/A,,Clear,0,2012-10-04 19:53:00
4:53 PM,80.1,55.9,43,30.18,10.0,WSW,4.6,-,N/A,,Clear,240,2012-10-04 20:53:00
5:53 PM,79.0,55.9,45,30.18,10.0,West,4.6,-,N/A,,Clear,260,2012-10-04 21:53:00
6:53 PM,75.9,57.0,52,30.18,10.0,West,3.5,-,N/A,,Clear,260,2012-10-04 22:53:00
7:53 PM,75.0,57.9,55,30.18,10.0,Calm,Calm,-,N/A,,Clear,0,2012-10-04 23:53:00
9:53 PM,71.1,55.0,57,30.21,10.0,North,6.9,-,N/A,,Clear,350,2012-10-05 01:53:00
10:53 PM,69.1,54.0,58,30.22,10.0,North,5.8,-,N/A,,Clear,350,2012-10-05 02:53:00
11:53 PM,66.9,54.0,63,30.22,10.0,Calm,Calm,-,N/A,,Clear,0,2012-10-05 03:53:00